sensor_id;sensor_type;location;lat;lon;timestamp;temperature;humidity
16801;DHT22;8518;53.236;10.384;2023-07-20T00:00:34;14.50;99.90
16801;DHT22;8518;53.236;10.384;2023-07-20T00:03:13;14.10;99.90
16801;DHT22;8518;53.236;10.384;2023-07-20T00:05:55;13.40;99.90
16801;DHT22;8518;53.236;10.384;2023-07-20T00:08:22;13.20;99.90
16801;DHT22;8518;53.236;10.384;2023-07-20T00:10:47;13.20;99.90
16801;DHT22;8518;53.236;10.384;2023-07-20T00:13:13;13.20;99.90
16801;DHT22;8518;53.236;10.384;2023-07-20T00:15:48;13.20;99.90
16801;DHT22;8518;53.236;10.384;2023-07-20T00:18:14;13.20;99.90
16801;DHT22;8518;53.236;10.384;2023-07-20T00:20:40;13.20;99.90
16801;DHT22;8518;53.236;10.384;2023-07-20T00:23:05;13.50;99.90
16801;DHT22;8518;53.236;10.384;2023-07-20T00:25:42;13.20;99.90
16801;DHT22;8518;53.236;10.384;2023-07-20T00:28:08;13.70;99.90
16801;DHT22;8518;53.236;10.384;2023-07-20T00:30:33;14.40;99.90
16801;DHT22;8518;53.236;10.384;2023-07-20T00:32:59;13.20;99.90
16801;DHT22;8518;53.236;10.384;2023-07-20T00:35:29;13.20;99.90
16801;DHT22;8518;53.236;10.384;2023-07-20T00:37:56;13.20;99.90
16801;DHT22;8518;53.236;10.384;2023-07-20T00:40:23;13.00;99.90
16801;DHT22;8518;53.236;10.384;2023-07-20T00:42:48;13.00;99.90
16801;DHT22;8518;53.236;10.384;2023-07-20T00:45:25;12.90;99.90
16801;DHT22;8518;53.236;10.384;2023-07-20T00:47:51;13.40;99.90
16801;DHT22;8518;53.236;10.384;2023-07-20T00:50:17;13.60;99.90
16801;DHT22;8518;53.236;10.384;2023-07-20T00:52:43;12.80;99.90
16801;DHT22;8518;53.236;10.384;2023-07-20T00:55:09;13.00;99.90
16801;DHT22;8518;53.236;10.384;2023-07-20T00:57:35;12.80;99.90
16801;DHT22;8518;53.236;10.384;2023-07-20T01:00:01;12.90;99.90
16801;DHT22;8518;53.236;10.384;2023-07-20T01:02:27;12.60;99.90
16801;DHT22;8518;53.236;10.384;2023-07-20T01:04:53;12.70;99.90
16801;DHT22;8518;53.236;10.384;2023-07-20T01:08:00;12.80;99.90
16801;DHT22;8518;53.236;10.384;2023-07-20T01:10:31;12.80;99.90
16801;DHT22;8518;53.236;10.384;2023-07-20T01:12:57;13.60;99.90
16801;DHT22;8518;53.236;10.384;2023-07-20T01:15:29;12.90;99.90
16801;DHT22;8518;53.236;10.384;2023-07-20T01:17:55;12.90;99.90
16801;DHT22;8518;53.236;10.384;2023-07-20T01:20:21;13.00;99.90
16801;DHT22;8518;53.236;10.384;2023-07-20T01:29:08;12.90;99.90
16801;DHT22;8518;53.236;10.384;2023-07-20T01:31:37;13.00;99.90
16801;DHT22;8518;53.236;10.384;2023-07-20T01:34:05;13.50;99.90
16801;DHT22;8518;53.236;10.384;2023-07-20T01:36:41;13.10;99.90
16801;DHT22;8518;53.236;10.384;2023-07-20T01:39:08;13.10;99.90
16801;DHT22;8518;53.236;10.384;2023-07-20T01:41:34;13.50;99.90
16801;DHT22;8518;53.236;10.384;2023-07-20T01:44:00;13.10;99.90
16801;DHT22;8518;53.236;10.384;2023-07-20T01:46:35;13.30;99.90
16801;DHT22;8518;53.236;10.384;2023-07-20T01:49:00;14.00;99.90
16801;DHT22;8518;53.236;10.384;2023-07-20T01:51:26;12.60;99.90
16801;DHT22;8518;53.236;10.384;2023-07-20T01:53:52;13.40;99.90
16801;DHT22;8518;53.236;10.384;2023-07-20T01:56:52;13.30;99.90
16801;DHT22;8518;53.236;10.384;2023-07-20T01:59:17;13.30;99.90
16801;DHT22;8518;53.236;10.384;2023-07-20T02:01:43;13.30;99.90
16801;DHT22;8518;53.236;10.384;2023-07-20T02:04:08;13.30;99.90
16801;DHT22;8518;53.236;10.384;2023-07-20T02:06:34;13.30;99.90
16801;DHT22;8518;53.236;10.384;2023-07-20T02:09:00;13.20;99.90
16801;DHT22;8518;53.236;10.384;2023-07-20T02:11:25;13.20;99.90
16801;DHT22;8518;53.236;10.384;2023-07-20T02:13:51;13.60;99.90
16801;DHT22;8518;53.236;10.384;2023-07-20T02:20:01;13.10;99.90
16801;DHT22;8518;53.236;10.384;2023-07-20T02:22:26;13.10;99.90
16801;DHT22;8518;53.236;10.384;2023-07-20T02:24:52;13.40;99.90
16801;DHT22;8518;53.236;10.384;2023-07-20T02:27:17;13.20;99.90
16801;DHT22;8518;53.236;10.384;2023-07-20T02:29:43;13.20;99.90
16801;DHT22;8518;53.236;10.384;2023-07-20T02:32:09;13.30;99.90
16801;DHT22;8518;53.236;10.384;2023-07-20T02:34:36;14.00;99.90
16801;DHT22;8518;53.236;10.384;2023-07-20T02:37:05;14.40;99.90
16801;DHT22;8518;53.236;10.384;2023-07-20T02:39:30;13.40;99.90
16801;DHT22;8518;53.236;10.384;2023-07-20T02:41:56;14.40;99.90
16801;DHT22;8518;53.236;10.384;2023-07-20T02:44:22;14.80;99.90
16801;DHT22;8518;53.236;10.384;2023-07-20T02:46:55;13.60;99.90
16801;DHT22;8518;53.236;10.384;2023-07-20T02:49:21;13.60;99.90
16801;DHT22;8518;53.236;10.384;2023-07-20T02:51:46;13.90;99.90
16801;DHT22;8518;53.236;10.384;2023-07-20T02:54:12;14.40;99.90
16801;DHT22;8518;53.236;10.384;2023-07-20T02:56:47;13.80;99.90
16801;DHT22;8518;53.236;10.384;2023-07-20T02:59:12;14.60;99.90
16801;DHT22;8518;53.236;10.384;2023-07-20T03:01:38;13.90;99.90
16801;DHT22;8518;53.236;10.384;2023-07-20T03:04:04;14.10;99.90
16801;DHT22;8518;53.236;10.384;2023-07-20T03:06:29;14.00;99.90
16801;DHT22;8518;53.236;10.384;2023-07-20T03:08:55;14.00;99.90
16801;DHT22;8518;53.236;10.384;2023-07-20T03:11:20;14.10;99.90
16801;DHT22;8518;53.236;10.384;2023-07-20T03:13:47;14.60;99.90
16801;DHT22;8518;53.236;10.384;2023-07-20T03:16:19;14.50;99.90
16801;DHT22;8518;53.236;10.384;2023-07-20T03:18:45;14.20;99.90
16801;DHT22;8518;53.236;10.384;2023-07-20T03:21:11;14.20;99.90
16801;DHT22;8518;53.236;10.384;2023-07-20T03:23:37;14.20;99.90
16801;DHT22;8518;53.236;10.384;2023-07-20T03:26:09;14.20;99.90
16801;DHT22;8518;53.236;10.384;2023-07-20T03:28:36;14.20;99.90
16801;DHT22;8518;53.236;10.384;2023-07-20T03:31:01;14.20;99.90
16801;DHT22;8518;53.236;10.384;2023-07-20T03:33:28;14.70;99.90
16801;DHT22;8518;53.236;10.384;2023-07-20T03:35:57;14.20;99.90
16801;DHT22;8518;53.236;10.384;2023-07-20T03:38:24;14.10;99.90
16801;DHT22;8518;53.236;10.384;2023-07-20T03:40:54;14.10;99.90
16801;DHT22;8518;53.236;10.384;2023-07-20T03:43:21;14.10;99.90
16801;DHT22;8518;53.236;10.384;2023-07-20T03:45:50;14.60;99.90
16801;DHT22;8518;53.236;10.384;2023-07-20T03:48:20;14.10;99.90
16801;DHT22;8518;53.236;10.384;2023-07-20T03:50:47;14.50;99.90
16801;DHT22;8518;53.236;10.384;2023-07-20T03:53:14;15.10;99.90
16801;DHT22;8518;53.236;10.384;2023-07-20T03:55:41;14.50;99.90
16801;DHT22;8518;53.236;10.384;2023-07-20T03:58:07;14.00;99.90
16801;DHT22;8518;53.236;10.384;2023-07-20T04:00:34;13.90;99.90
16801;DHT22;8518;53.236;10.384;2023-07-20T04:03:01;13.90;99.90
16801;DHT22;8518;53.236;10.384;2023-07-20T04:08:48;13.90;99.90
16801;DHT22;8518;53.236;10.384;2023-07-20T04:11:14;14.10;99.90
16801;DHT22;8518;53.236;10.384;2023-07-20T04:13:40;13.90;99.90
16801;DHT22;8518;53.236;10.384;2023-07-20T04:16:11;13.80;99.90
16801;DHT22;8518;53.236;10.384;2023-07-20T04:18:37;14.30;99.90
16801;DHT22;8518;53.236;10.384;2023-07-20T04:21:02;13.90;99.90
16801;DHT22;8518;53.236;10.384;2023-07-20T04:23:28;13.90;99.90
16801;DHT22;8518;53.236;10.384;2023-07-20T04:25:55;14.60;99.90
16801;DHT22;8518;53.236;10.384;2023-07-20T04:28:20;14.30;99.90
16801;DHT22;8518;53.236;10.384;2023-07-20T04:30:48;13.90;99.90
16801;DHT22;8518;53.236;10.384;2023-07-20T04:33:14;14.00;99.90
16801;DHT22;8518;53.236;10.384;2023-07-20T04:35:52;14.30;99.90
16801;DHT22;8518;53.236;10.384;2023-07-20T04:38:18;14.00;99.90
16801;DHT22;8518;53.236;10.384;2023-07-20T04:40:49;14.40;99.90
16801;DHT22;8518;53.236;10.384;2023-07-20T04:43:16;14.20;99.90
16801;DHT22;8518;53.236;10.384;2023-07-20T04:45:50;14.60;99.90
16801;DHT22;8518;53.236;10.384;2023-07-20T04:48:17;15.50;99.90
16801;DHT22;8518;53.236;10.384;2023-07-20T04:50:44;15.30;99.90
16801;DHT22;8518;53.236;10.384;2023-07-20T04:53:10;15.90;99.90
16801;DHT22;8518;53.236;10.384;2023-07-20T04:55:59;14.90;99.90
16801;DHT22;8518;53.236;10.384;2023-07-20T04:58:25;14.70;99.90
16801;DHT22;8518;53.236;10.384;2023-07-20T05:00:51;14.70;99.90
16801;DHT22;8518;53.236;10.384;2023-07-20T05:03:17;14.80;99.90
16801;DHT22;8518;53.236;10.384;2023-07-20T05:06:03;14.80;99.90
16801;DHT22;8518;53.236;10.384;2023-07-20T05:08:31;14.90;99.90
16801;DHT22;8518;53.236;10.384;2023-07-20T05:10:56;15.00;99.90
16801;DHT22;8518;53.236;10.384;2023-07-20T05:13:22;15.10;99.90
16801;DHT22;8518;53.236;10.384;2023-07-20T05:15:58;15.50;99.90
16801;DHT22;8518;53.236;10.384;2023-07-20T05:18:26;14.90;99.90
16801;DHT22;8518;53.236;10.384;2023-07-20T05:20:52;15.00;99.90
16801;DHT22;8518;53.236;10.384;2023-07-20T05:23:18;15.00;99.90
16801;DHT22;8518;53.236;10.384;2023-07-20T05:25:56;15.30;99.90
16801;DHT22;8518;53.236;10.384;2023-07-20T05:28:26;15.10;99.90
16801;DHT22;8518;53.236;10.384;2023-07-20T05:30:52;15.30;99.90
16801;DHT22;8518;53.236;10.384;2023-07-20T05:33:22;15.40;99.90
16801;DHT22;8518;53.236;10.384;2023-07-20T05:39:09;15.80;99.90
16801;DHT22;8518;53.236;10.384;2023-07-20T05:41:35;15.90;99.90
16801;DHT22;8518;53.236;10.384;2023-07-20T05:44:00;16.20;99.90
16801;DHT22;8518;53.236;10.384;2023-07-20T05:46:28;16.00;99.90
16801;DHT22;8518;53.236;10.384;2023-07-20T05:48:53;16.40;99.90
16801;DHT22;8518;53.236;10.384;2023-07-20T05:51:19;16.10;99.90
16801;DHT22;8518;53.236;10.384;2023-07-20T05:53:46;16.20;99.90
16801;DHT22;8518;53.236;10.384;2023-07-20T05:56:17;16.10;99.90
16801;DHT22;8518;53.236;10.384;2023-07-20T05:58:43;16.10;99.90
16801;DHT22;8518;53.236;10.384;2023-07-20T06:01:09;16.20;99.90
16801;DHT22;8518;53.236;10.384;2023-07-20T06:03:34;16.50;99.90
16801;DHT22;8518;53.236;10.384;2023-07-20T06:06:14;16.30;99.90
16801;DHT22;8518;53.236;10.384;2023-07-20T06:08:40;16.40;99.90
16801;DHT22;8518;53.236;10.384;2023-07-20T06:11:06;16.90;99.90
16801;DHT22;8518;53.236;10.384;2023-07-20T06:13:31;16.80;99.90
16801;DHT22;8518;53.236;10.384;2023-07-20T06:15:57;16.70;99.90
16801;DHT22;8518;53.236;10.384;2023-07-20T06:18:23;16.70;99.90
16801;DHT22;8518;53.236;10.384;2023-07-20T06:20:52;16.60;99.90
16801;DHT22;8518;53.236;10.384;2023-07-20T06:23:19;16.70;99.90
16801;DHT22;8518;53.236;10.384;2023-07-20T06:26:03;16.90;99.90
16801;DHT22;8518;53.236;10.384;2023-07-20T06:28:28;17.00;99.90
16801;DHT22;8518;53.236;10.384;2023-07-20T06:31:02;17.20;99.90
16801;DHT22;8518;53.236;10.384;2023-07-20T06:33:28;17.20;99.90
16801;DHT22;8518;53.236;10.384;2023-07-20T06:36:01;16.80;99.90
16801;DHT22;8518;53.236;10.384;2023-07-20T06:38:27;16.70;99.90
16801;DHT22;8518;53.236;10.384;2023-07-20T06:40:53;16.80;99.90
16801;DHT22;8518;53.236;10.384;2023-07-20T06:43:20;17.70;99.90
16801;DHT22;8518;53.236;10.384;2023-07-20T06:45:56;17.60;99.90
16801;DHT22;8518;53.236;10.384;2023-07-20T06:48:22;17.80;99.90
16801;DHT22;8518;53.236;10.384;2023-07-20T06:50:48;17.80;99.90
16801;DHT22;8518;53.236;10.384;2023-07-20T06:53:13;17.70;99.90
16801;DHT22;8518;53.236;10.384;2023-07-20T06:55:42;17.80;99.90
16801;DHT22;8518;53.236;10.384;2023-07-20T06:58:07;17.90;99.90
16801;DHT22;8518;53.236;10.384;2023-07-20T07:00:33;18.10;99.90
16801;DHT22;8518;53.236;10.384;2023-07-20T07:02:59;18.20;99.90
16801;DHT22;8518;53.236;10.384;2023-07-20T07:05:40;18.40;99.90
16801;DHT22;8518;53.236;10.384;2023-07-20T07:08:06;18.50;99.90
16801;DHT22;8518;53.236;10.384;2023-07-20T07:10:33;19.00;99.90
16801;DHT22;8518;53.236;10.384;2023-07-20T07:12:58;19.10;99.90
16801;DHT22;8518;53.236;10.384;2023-07-20T07:15:24;19.10;99.90
16801;DHT22;8518;53.236;10.384;2023-07-20T07:17:50;19.20;99.90
16801;DHT22;8518;53.236;10.384;2023-07-20T07:20:16;19.10;99.90
16801;DHT22;8518;53.236;10.384;2023-07-20T07:22:43;19.30;99.90
16801;DHT22;8518;53.236;10.384;2023-07-20T07:25:10;19.50;99.90
16801;DHT22;8518;53.236;10.384;2023-07-20T07:27:36;19.90;99.90
16801;DHT22;8518;53.236;10.384;2023-07-20T07:30:02;20.10;99.90
16801;DHT22;8518;53.236;10.384;2023-07-20T07:32:28;20.90;99.90
16801;DHT22;8518;53.236;10.384;2023-07-20T07:34:54;20.30;99.90
16801;DHT22;8518;53.236;10.384;2023-07-20T07:37:20;20.30;99.90
16801;DHT22;8518;53.236;10.384;2023-07-20T07:39:46;20.40;99.90
16801;DHT22;8518;53.236;10.384;2023-07-20T07:42:12;20.50;99.90
16801;DHT22;8518;53.236;10.384;2023-07-20T07:44:38;20.30;99.90
16801;DHT22;8518;53.236;10.384;2023-07-20T07:47:04;20.10;99.90
16801;DHT22;8518;53.236;10.384;2023-07-20T07:49:29;20.20;99.90
16801;DHT22;8518;53.236;10.384;2023-07-20T07:51:55;20.40;99.90
16801;DHT22;8518;53.236;10.384;2023-07-20T07:54:20;20.60;99.90
16801;DHT22;8518;53.236;10.384;2023-07-20T07:56:53;20.70;99.90
16801;DHT22;8518;53.236;10.384;2023-07-20T07:59:19;20.50;99.90
16801;DHT22;8518;53.236;10.384;2023-07-20T08:01:45;20.20;99.90
16801;DHT22;8518;53.236;10.384;2023-07-20T08:04:10;20.50;99.90
16801;DHT22;8518;53.236;10.384;2023-07-20T08:06:42;21.00;99.90
16801;DHT22;8518;53.236;10.384;2023-07-20T08:09:08;21.40;99.90
16801;DHT22;8518;53.236;10.384;2023-07-20T08:11:33;21.60;99.90
16801;DHT22;8518;53.236;10.384;2023-07-20T08:14:00;21.80;99.90
16801;DHT22;8518;53.236;10.384;2023-07-20T08:16:26;21.40;99.90
16801;DHT22;8518;53.236;10.384;2023-07-20T08:18:52;21.60;99.90
16801;DHT22;8518;53.236;10.384;2023-07-20T08:21:18;21.70;99.90
16801;DHT22;8518;53.236;10.384;2023-07-20T08:23:44;21.50;99.90
16801;DHT22;8518;53.236;10.384;2023-07-20T08:26:11;21.50;99.90
16801;DHT22;8518;53.236;10.384;2023-07-20T08:28:37;21.30;99.90
16801;DHT22;8518;53.236;10.384;2023-07-20T08:31:05;21.30;99.90
16801;DHT22;8518;53.236;10.384;2023-07-20T08:33:31;21.80;99.90
16801;DHT22;8518;53.236;10.384;2023-07-20T08:36:06;22.20;99.90
16801;DHT22;8518;53.236;10.384;2023-07-20T08:38:31;22.60;99.90
16801;DHT22;8518;53.236;10.384;2023-07-20T08:40:57;22.90;99.90
16801;DHT22;8518;53.236;10.384;2023-07-20T08:43:25;23.30;99.90
16801;DHT22;8518;53.236;10.384;2023-07-20T08:45:54;23.70;99.90
16801;DHT22;8518;53.236;10.384;2023-07-20T08:48:21;24.10;99.90
16801;DHT22;8518;53.236;10.384;2023-07-20T08:50:51;24.20;99.90
16801;DHT22;8518;53.236;10.384;2023-07-20T08:53:19;24.20;99.90
16801;DHT22;8518;53.236;10.384;2023-07-20T08:55:51;24.10;99.90
16801;DHT22;8518;53.236;10.384;2023-07-20T08:58:20;23.70;99.90
16801;DHT22;8518;53.236;10.384;2023-07-20T09:00:48;23.10;99.90
16801;DHT22;8518;53.236;10.384;2023-07-20T09:03:15;22.50;99.90
16801;DHT22;8518;53.236;10.384;2023-07-20T09:05:42;21.90;99.90
16801;DHT22;8518;53.236;10.384;2023-07-20T09:08:08;21.60;99.90
16801;DHT22;8518;53.236;10.384;2023-07-20T09:10:35;21.90;99.90
16801;DHT22;8518;53.236;10.384;2023-07-20T09:13:00;22.20;99.90
16801;DHT22;8518;53.236;10.384;2023-07-20T09:15:36;22.40;99.90
16801;DHT22;8518;53.236;10.384;2023-07-20T09:18:02;23.30;99.90
16801;DHT22;8518;53.236;10.384;2023-07-20T09:20:32;24.10;99.90
16801;DHT22;8518;53.236;10.384;2023-07-20T09:23:00;25.00;97.20
16801;DHT22;8518;53.236;10.384;2023-07-20T09:25:29;26.10;94.30
16801;DHT22;8518;53.236;10.384;2023-07-20T09:28:02;26.60;93.50
16801;DHT22;8518;53.236;10.384;2023-07-20T09:30:29;27.90;91.20
16801;DHT22;8518;53.236;10.384;2023-07-20T09:32:56;29.50;84.40
16801;DHT22;8518;53.236;10.384;2023-07-20T09:35:24;31.10;79.90
16801;DHT22;8518;53.236;10.384;2023-07-20T09:38:00;30.80;77.60
16801;DHT22;8518;53.236;10.384;2023-07-20T09:40:27;31.40;76.20
16801;DHT22;8518;53.236;10.384;2023-07-20T09:42:54;32.50;74.70
16801;DHT22;8518;53.236;10.384;2023-07-20T09:45:39;32.60;66.10
16801;DHT22;8518;53.236;10.384;2023-07-20T09:48:07;32.30;64.50
16801;DHT22;8518;53.236;10.384;2023-07-20T09:50:34;33.20;66.40
16801;DHT22;8518;53.236;10.384;2023-07-20T09:53:01;33.90;60.90
16801;DHT22;8518;53.236;10.384;2023-07-20T09:55:29;32.90;59.60
16801;DHT22;8518;53.236;10.384;2023-07-20T09:57:56;31.50;62.20
16801;DHT22;8518;53.236;10.384;2023-07-20T10:00:21;29.30;74.00
16801;DHT22;8518;53.236;10.384;2023-07-20T10:02:49;27.20;88.90
16801;DHT22;8518;53.236;10.384;2023-07-20T10:05:32;25.20;96.50
16801;DHT22;8518;53.236;10.384;2023-07-20T10:08:03;23.60;99.90
16801;DHT22;8518;53.236;10.384;2023-07-20T10:10:32;22.40;99.90
16801;DHT22;8518;53.236;10.384;2023-07-20T10:13:01;21.80;99.90
16801;DHT22;8518;53.236;10.384;2023-07-20T10:15:43;21.50;99.90
16801;DHT22;8518;53.236;10.384;2023-07-20T10:18:18;21.90;99.90
16801;DHT22;8518;53.236;10.384;2023-07-20T10:20:46;23.50;99.90
16801;DHT22;8518;53.236;10.384;2023-07-20T10:23:12;27.30;99.90
16801;DHT22;8518;53.236;10.384;2023-07-20T10:28:06;34.40;90.40
16801;DHT22;8518;53.236;10.384;2023-07-20T10:33:01;37.30;64.30
16801;DHT22;8518;53.236;10.384;2023-07-20T10:38:00;39.20;52.70
16801;DHT22;8518;53.236;10.384;2023-07-20T10:40:33;39.60;51.50
16801;DHT22;8518;53.236;10.384;2023-07-20T10:43:02;39.80;50.20
16801;DHT22;8518;53.236;10.384;2023-07-20T10:45:47;40.80;45.10
16801;DHT22;8518;53.236;10.384;2023-07-20T10:48:15;41.30;43.20
16801;DHT22;8518;53.236;10.384;2023-07-20T10:50:42;41.90;43.10
16801;DHT22;8518;53.236;10.384;2023-07-20T10:53:12;41.30;42.30
16801;DHT22;8518;53.236;10.384;2023-07-20T10:55:43;40.10;42.80
16801;DHT22;8518;53.236;10.384;2023-07-20T10:58:14;38.40;42.30
16801;DHT22;8518;53.236;10.384;2023-07-20T11:01:03;36.30;45.10
16801;DHT22;8518;53.236;10.384;2023-07-20T11:03:33;35.30;47.50
16801;DHT22;8518;53.236;10.384;2023-07-20T11:09:09;31.10;55.30
16801;DHT22;8518;53.236;10.384;2023-07-20T11:11:37;30.00;57.40
16801;DHT22;8518;53.236;10.384;2023-07-20T11:14:20;28.70;62.40
16801;DHT22;8518;53.236;10.384;2023-07-20T11:17:11;27.70;67.10
16801;DHT22;8518;53.236;10.384;2023-07-20T11:19:40;27.20;70.60
16801;DHT22;8518;53.236;10.384;2023-07-20T11:22:06;27.30;74.00
16801;DHT22;8518;53.236;10.384;2023-07-20T11:24:39;27.50;77.00
16801;DHT22;8518;53.236;10.384;2023-07-20T11:29:38;32.00;63.60
16801;DHT22;8518;53.236;10.384;2023-07-20T11:32:04;34.10;56.90
16801;DHT22;8518;53.236;10.384;2023-07-20T11:34:31;34.10;54.90
16801;DHT22;8518;53.236;10.384;2023-07-20T11:36:57;32.90;56.40
16801;DHT22;8518;53.236;10.384;2023-07-20T11:39:23;31.00;56.20
16801;DHT22;8518;53.236;10.384;2023-07-20T11:41:55;29.10;58.80
16801;DHT22;8518;53.236;10.384;2023-07-20T11:44:25;28.00;62.10
16801;DHT22;8518;53.236;10.384;2023-07-20T11:47:11;27.70;61.40
16801;DHT22;8518;53.236;10.384;2023-07-20T11:49:44;28.70;62.90
16801;DHT22;8518;53.236;10.384;2023-07-20T11:52:16;30.40;58.40
16801;DHT22;8518;53.236;10.384;2023-07-20T11:54:43;29.90;57.50
16801;DHT22;8518;53.236;10.384;2023-07-20T11:57:19;28.70;58.60
16801;DHT22;8518;53.236;10.384;2023-07-20T11:59:56;27.80;62.30
16801;DHT22;8518;53.236;10.384;2023-07-20T12:02:29;27.00;63.00
16801;DHT22;8518;53.236;10.384;2023-07-20T12:04:55;28.20;63.90
16801;DHT22;8518;53.236;10.384;2023-07-20T12:07:23;27.60;60.90
16801;DHT22;8518;53.236;10.384;2023-07-20T12:10:05;26.20;65.30
16801;DHT22;8518;53.236;10.384;2023-07-20T12:12:32;25.50;71.80
16801;DHT22;8518;53.236;10.384;2023-07-20T12:17:49;25.90;72.50
16801;DHT22;8518;53.236;10.384;2023-07-20T12:20:34;25.50;74.60
16801;DHT22;8518;53.236;10.384;2023-07-20T12:23:09;24.80;77.70
16801;DHT22;8518;53.236;10.384;2023-07-20T12:25:43;24.00;81.20
16801;DHT22;8518;53.236;10.384;2023-07-20T12:28:11;23.80;83.60
16801;DHT22;8518;53.236;10.384;2023-07-20T12:30:38;24.10;81.10
16801;DHT22;8518;53.236;10.384;2023-07-20T12:33:04;24.20;79.10
16801;DHT22;8518;53.236;10.384;2023-07-20T12:35:32;24.00;79.80
16801;DHT22;8518;53.236;10.384;2023-07-20T12:37:58;23.40;83.70
16801;DHT22;8518;53.236;10.384;2023-07-20T12:40:24;22.60;84.50
16801;DHT22;8518;53.236;10.384;2023-07-20T12:42:49;22.10;91.70
16801;DHT22;8518;53.236;10.384;2023-07-20T12:45:16;21.70;92.70
16801;DHT22;8518;53.236;10.384;2023-07-20T12:47:42;21.60;94.80
16801;DHT22;8518;53.236;10.384;2023-07-20T12:50:10;21.50;96.50
16801;DHT22;8518;53.236;10.384;2023-07-20T12:52:38;21.30;97.90
16801;DHT22;8518;53.236;10.384;2023-07-20T12:55:05;21.20;99.40
16801;DHT22;8518;53.236;10.384;2023-07-20T12:57:35;21.00;99.90
16801;DHT22;8518;53.236;10.384;2023-07-20T13:00:05;20.70;99.90
16801;DHT22;8518;53.236;10.384;2023-07-20T13:02:32;20.80;99.90
16801;DHT22;8518;53.236;10.384;2023-07-20T13:04:58;21.00;99.90
16801;DHT22;8518;53.236;10.384;2023-07-20T13:07:38;21.40;99.90
16801;DHT22;8518;53.236;10.384;2023-07-20T13:10:05;21.50;99.90
16801;DHT22;8518;53.236;10.384;2023-07-20T13:12:32;21.50;99.90
16801;DHT22;8518;53.236;10.384;2023-07-20T13:14:58;21.30;99.90
16801;DHT22;8518;53.236;10.384;2023-07-20T13:17:26;21.00;99.90
16801;DHT22;8518;53.236;10.384;2023-07-20T13:19:52;20.80;99.90
16801;DHT22;8518;53.236;10.384;2023-07-20T13:22:18;20.70;99.90
16801;DHT22;8518;53.236;10.384;2023-07-20T13:24:45;20.60;99.90
16801;DHT22;8518;53.236;10.384;2023-07-20T13:27:17;20.40;99.90
16801;DHT22;8518;53.236;10.384;2023-07-20T13:29:43;20.70;99.90
16801;DHT22;8518;53.236;10.384;2023-07-20T13:32:09;21.20;99.90
16801;DHT22;8518;53.236;10.384;2023-07-20T13:34:35;21.40;99.90
16801;DHT22;8518;53.236;10.384;2023-07-20T13:37:07;21.50;99.90
16801;DHT22;8518;53.236;10.384;2023-07-20T13:39:33;21.50;99.90
16801;DHT22;8518;53.236;10.384;2023-07-20T13:41:59;21.60;99.90
16801;DHT22;8518;53.236;10.384;2023-07-20T13:44:27;21.40;99.90
16801;DHT22;8518;53.236;10.384;2023-07-20T13:46:56;21.00;99.90
16801;DHT22;8518;53.236;10.384;2023-07-20T13:49:22;20.80;99.90
16801;DHT22;8518;53.236;10.384;2023-07-20T13:51:48;20.60;99.90
16801;DHT22;8518;53.236;10.384;2023-07-20T13:54:14;20.50;99.90
16801;DHT22;8518;53.236;10.384;2023-07-20T13:56:42;20.50;99.90
16801;DHT22;8518;53.236;10.384;2023-07-20T13:59:07;20.50;99.90
16801;DHT22;8518;53.236;10.384;2023-07-20T14:01:33;20.50;99.90
16801;DHT22;8518;53.236;10.384;2023-07-20T14:04:00;20.60;99.90
16801;DHT22;8518;53.236;10.384;2023-07-20T14:06:31;20.70;99.90
16801;DHT22;8518;53.236;10.384;2023-07-20T14:08:57;20.70;99.90
16801;DHT22;8518;53.236;10.384;2023-07-20T14:11:23;20.80;99.90
16801;DHT22;8518;53.236;10.384;2023-07-20T14:13:50;20.60;99.90
16801;DHT22;8518;53.236;10.384;2023-07-20T14:16:18;20.30;99.90
16801;DHT22;8518;53.236;10.384;2023-07-20T14:18:44;20.00;99.90
16801;DHT22;8518;53.236;10.384;2023-07-20T14:21:12;19.80;99.90
16801;DHT22;8518;53.236;10.384;2023-07-20T14:23:39;19.60;99.90
16801;DHT22;8518;53.236;10.384;2023-07-20T14:26:07;19.20;99.90
16801;DHT22;8518;53.236;10.384;2023-07-20T14:28:34;18.90;99.90
16801;DHT22;8518;53.236;10.384;2023-07-20T14:31:00;18.70;99.90
16801;DHT22;8518;53.236;10.384;2023-07-20T14:33:26;18.60;99.90
16801;DHT22;8518;53.236;10.384;2023-07-20T14:36:06;18.40;99.90
16801;DHT22;8518;53.236;10.384;2023-07-20T14:38:33;18.20;99.90
16801;DHT22;8518;53.236;10.384;2023-07-20T14:40:59;18.00;99.90
16801;DHT22;8518;53.236;10.384;2023-07-20T14:43:25;17.70;99.90
16801;DHT22;8518;53.236;10.384;2023-07-20T14:46:06;17.70;99.90
16801;DHT22;8518;53.236;10.384;2023-07-20T14:48:32;17.60;99.90
16801;DHT22;8518;53.236;10.384;2023-07-20T14:50:57;17.70;99.90
16801;DHT22;8518;53.236;10.384;2023-07-20T14:53:23;17.80;99.90
16801;DHT22;8518;53.236;10.384;2023-07-20T14:56:15;18.00;99.90
16801;DHT22;8518;53.236;10.384;2023-07-20T14:58:40;17.90;99.90
16801;DHT22;8518;53.236;10.384;2023-07-20T15:01:06;18.00;99.90
16801;DHT22;8518;53.236;10.384;2023-07-20T15:03:31;18.10;99.90
16801;DHT22;8518;53.236;10.384;2023-07-20T15:06:12;18.20;99.90
16801;DHT22;8518;53.236;10.384;2023-07-20T15:08:38;18.20;99.90
16801;DHT22;8518;53.236;10.384;2023-07-20T15:11:03;18.70;99.90
16801;DHT22;8518;53.236;10.384;2023-07-20T15:13:29;18.20;99.90
16801;DHT22;8518;53.236;10.384;2023-07-20T15:15:57;18.20;99.90
16801;DHT22;8518;53.236;10.384;2023-07-20T15:18:22;18.20;99.90
16801;DHT22;8518;53.236;10.384;2023-07-20T15:20:48;18.40;99.90
16801;DHT22;8518;53.236;10.384;2023-07-20T15:23:19;18.50;99.90
16801;DHT22;8518;53.236;10.384;2023-07-20T15:25:49;18.70;99.90
16801;DHT22;8518;53.236;10.384;2023-07-20T15:28:15;18.70;99.90
16801;DHT22;8518;53.236;10.384;2023-07-20T15:30:41;18.60;99.90
16801;DHT22;8518;53.236;10.384;2023-07-20T15:33:07;18.60;99.90
16801;DHT22;8518;53.236;10.384;2023-07-20T15:35:44;18.70;99.90
16801;DHT22;8518;53.236;10.384;2023-07-20T15:38:09;18.70;99.90
16801;DHT22;8518;53.236;10.384;2023-07-20T15:40:35;18.80;99.90
16801;DHT22;8518;53.236;10.384;2023-07-20T15:43:01;18.80;99.90
16801;DHT22;8518;53.236;10.384;2023-07-20T15:46:02;18.80;99.90
16801;DHT22;8518;53.236;10.384;2023-07-20T15:48:33;18.80;99.90
16801;DHT22;8518;53.236;10.384;2023-07-20T15:50:59;18.90;99.90
16801;DHT22;8518;53.236;10.384;2023-07-20T15:53:25;19.20;99.90
16801;DHT22;8518;53.236;10.384;2023-07-20T15:55:55;19.40;99.90
16801;DHT22;8518;53.236;10.384;2023-07-20T15:58:21;19.40;99.90
16801;DHT22;8518;53.236;10.384;2023-07-20T16:00:54;19.60;99.90
16801;DHT22;8518;53.236;10.384;2023-07-20T16:03:23;19.60;99.90
16801;DHT22;8518;53.236;10.384;2023-07-20T16:05:54;19.40;99.90
16801;DHT22;8518;53.236;10.384;2023-07-20T16:08:20;19.30;99.90
16801;DHT22;8518;53.236;10.384;2023-07-20T16:10:45;19.30;99.90